sensor_id;sensor_type;location;lat;lon;timestamp;P1;durP1;ratioP1;P2;durP2;ratioP2
22843;SDS011;11588;51.178;4.852;2023-04-03T00:01:59;13.82;;;9.73;;
22843;SDS011;11588;51.178;4.852;2023-04-03T00:04:26;14.95;;;9.25;;
22843;SDS011;11588;51.178;4.852;2023-04-03T00:06:51;14.93;;;9.30;;
22843;SDS011;11588;51.178;4.852;2023-04-03T00:09:17;10.30;;;8.68;;
22843;SDS011;11588;51.178;4.852;2023-04-03T00:11:42;12.65;;;9.02;;
22843;SDS011;11588;51.178;4.852;2023-04-03T00:14:08;13.43;;;9.18;;
22843;SDS011;11588;51.178;4.852;2023-04-03T00:16:33;14.82;;;8.90;;
22843;SDS011;11588;51.178;4.852;2023-04-03T00:18:58;11.82;;;9.02;;
22843;SDS011;11588;51.178;4.852;2023-04-03T00:21:23;14.27;;;9.82;;
22843;SDS011;11588;51.178;4.852;2023-04-03T00:23:49;16.40;;;9.80;;
22843;SDS011;11588;51.178;4.852;2023-04-03T00:26:15;16.00;;;9.23;;
22843;SDS011;11588;51.178;4.852;2023-04-03T00:28:41;12.25;;;9.63;;
22843;SDS011;11588;51.178;4.852;2023-04-03T00:31:08;11.95;;;8.77;;
22843;SDS011;11588;51.178;4.852;2023-04-03T00:33:33;12.95;;;9.20;;
22843;SDS011;11588;51.178;4.852;2023-04-03T00:35:59;13.57;;;8.52;;
22843;SDS011;11588;51.178;4.852;2023-04-03T00:38:24;11.45;;;8.38;;
22843;SDS011;11588;51.178;4.852;2023-04-03T00:40:50;12.32;;;9.15;;
22843;SDS011;11588;51.178;4.852;2023-04-03T00:43:20;15.70;;;8.52;;
22843;SDS011;11588;51.178;4.852;2023-04-03T00:45:48;12.73;;;9.43;;
22843;SDS011;11588;51.178;4.852;2023-04-03T00:48:16;11.75;;;8.68;;
22843;SDS011;11588;51.178;4.852;2023-04-03T00:50:42;14.10;;;8.93;;
22843;SDS011;11588;51.178;4.852;2023-04-03T00:53:09;12.45;;;8.40;;
22843;SDS011;11588;51.178;4.852;2023-04-03T00:55:36;11.77;;;8.20;;
22843;SDS011;11588;51.178;4.852;2023-04-03T00:58:03;11.95;;;8.25;;
22843;SDS011;11588;51.178;4.852;2023-04-03T01:00:28;10.23;;;8.52;;
22843;SDS011;11588;51.178;4.852;2023-04-03T01:02:55;14.50;;;8.73;;
22843;SDS011;11588;51.178;4.852;2023-04-03T01:05:20;15.38;;;8.43;;
22843;SDS011;11588;51.178;4.852;2023-04-03T01:07:46;15.02;;;9.07;;
22843;SDS011;11588;51.178;4.852;2023-04-03T01:10:12;15.48;;;9.65;;
22843;SDS011;11588;51.178;4.852;2023-04-03T01:12:40;12.55;;;8.82;;
22843;SDS011;11588;51.178;4.852;2023-04-03T01:17:41;12.93;;;9.77;;
22843;SDS011;11588;51.178;4.852;2023-04-03T01:22:51;11.20;;;8.80;;
22843;SDS011;11588;51.178;4.852;2023-04-03T01:25:22;12.40;;;8.48;;
22843;SDS011;11588;51.178;4.852;2023-04-03T01:27:48;10.40;;;8.32;;
22843;SDS011;11588;51.178;4.852;2023-04-03T01:30:18;11.38;;;8.77;;
22843;SDS011;11588;51.178;4.852;2023-04-03T01:32:43;14.52;;;9.02;;
22843;SDS011;11588;51.178;4.852;2023-04-03T01:35:09;13.02;;;9.90;;
22843;SDS011;11588;51.178;4.852;2023-04-03T01:37:36;12.80;;;9.30;;
22843;SDS011;11588;51.178;4.852;2023-04-03T01:40:02;10.93;;;8.50;;
22843;SDS011;11588;51.178;4.852;2023-04-03T01:42:31;14.18;;;8.85;;
22843;SDS011;11588;51.178;4.852;2023-04-03T01:44:56;9.25;;;8.20;;
22843;SDS011;11588;51.178;4.852;2023-04-03T01:47:23;10.52;;;8.27;;
22843;SDS011;11588;51.178;4.852;2023-04-03T01:49:48;10.15;;;8.68;;
22843;SDS011;11588;51.178;4.852;2023-04-03T01:52:14;12.82;;;8.50;;
22843;SDS011;11588;51.178;4.852;2023-04-03T01:54:40;13.90;;;9.20;;
22843;SDS011;11588;51.178;4.852;2023-04-03T01:57:05;9.88;;;8.30;;
22843;SDS011;11588;51.178;4.852;2023-04-03T01:59:30;12.07;;;9.00;;
22843;SDS011;11588;51.178;4.852;2023-04-03T02:01:57;10.93;;;8.63;;
22843;SDS011;11588;51.178;4.852;2023-04-03T02:04:23;11.68;;;8.50;;
22843;SDS011;11588;51.178;4.852;2023-04-03T02:06:48;13.45;;;8.55;;
22843;SDS011;11588;51.178;4.852;2023-04-03T02:09:14;13.05;;;9.70;;
22843;SDS011;11588;51.178;4.852;2023-04-03T02:11:41;12.65;;;9.15;;
22843;SDS011;11588;51.178;4.852;2023-04-03T02:14:07;12.75;;;8.77;;
22843;SDS011;11588;51.178;4.852;2023-04-03T02:16:32;12.18;;;9.52;;
22843;SDS011;11588;51.178;4.852;2023-04-03T02:18:57;13.98;;;9.45;;
22843;SDS011;11588;51.178;4.852;2023-04-03T02:21:23;13.45;;;9.80;;
22843;SDS011;11588;51.178;4.852;2023-04-03T02:23:49;14.45;;;8.57;;
22843;SDS011;11588;51.178;4.852;2023-04-03T02:26:14;13.57;;;9.68;;
22843;SDS011;11588;51.178;4.852;2023-04-03T02:28:40;12.93;;;8.82;;
22843;SDS011;11588;51.178;4.852;2023-04-03T02:31:06;14.05;;;9.52;;
22843;SDS011;11588;51.178;4.852;2023-04-03T02:33:32;13.35;;;9.35;;
22843;SDS011;11588;51.178;4.852;2023-04-03T02:35:57;14.45;;;10.00;;
22843;SDS011;11588;51.178;4.852;2023-04-03T02:38:24;13.77;;;9.63;;
22843;SDS011;11588;51.178;4.852;2023-04-03T02:40:50;15.50;;;10.38;;
22843;SDS011;11588;51.178;4.852;2023-04-03T02:43:16;13.93;;;9.93;;
22843;SDS011;11588;51.178;4.852;2023-04-03T02:45:43;14.32;;;9.73;;
22843;SDS011;11588;51.178;4.852;2023-04-03T02:48:09;13.07;;;10.35;;
22843;SDS011;11588;51.178;4.852;2023-04-03T02:50:38;13.57;;;10.60;;
22843;SDS011;11588;51.178;4.852;2023-04-03T02:53:03;13.48;;;9.02;;
22843;SDS011;11588;51.178;4.852;2023-04-03T02:55:31;13.68;;;10.02;;
22843;SDS011;11588;51.178;4.852;2023-04-03T02:57:57;15.13;;;11.05;;
22843;SDS011;11588;51.178;4.852;2023-04-03T03:00:25;14.43;;;10.20;;
22843;SDS011;11588;51.178;4.852;2023-04-03T03:02:51;16.10;;;10.55;;
22843;SDS011;11588;51.178;4.852;2023-04-03T03:05:16;14.43;;;10.85;;
22843;SDS011;11588;51.178;4.852;2023-04-03T03:07:41;16.85;;;11.02;;
22843;SDS011;11588;51.178;4.852;2023-04-03T03:10:07;14.18;;;10.15;;
22843;SDS011;11588;51.178;4.852;2023-04-03T03:12:32;15.88;;;10.65;;
22843;SDS011;11588;51.178;4.852;2023-04-03T03:14:58;15.55;;;11.07;;
22843;SDS011;11588;51.178;4.852;2023-04-03T03:17:25;15.35;;;10.93;;
22843;SDS011;11588;51.178;4.852;2023-04-03T03:19:51;16.25;;;11.38;;
22843;SDS011;11588;51.178;4.852;2023-04-03T03:22:17;16.40;;;10.68;;
22843;SDS011;11588;51.178;4.852;2023-04-03T03:24:45;15.07;;;11.35;;
22843;SDS011;11588;51.178;4.852;2023-04-03T03:27:10;18.88;;;11.63;;
22843;SDS011;11588;51.178;4.852;2023-04-03T03:29:37;15.80;;;10.90;;
22843;SDS011;11588;51.178;4.852;2023-04-03T03:32:04;16.95;;;11.85;;
22843;SDS011;11588;51.178;4.852;2023-04-03T03:34:29;17.17;;;12.98;;
22843;SDS011;11588;51.178;4.852;2023-04-03T03:36:58;16.42;;;11.65;;
22843;SDS011;11588;51.178;4.852;2023-04-03T03:39:24;18.17;;;12.07;;
22843;SDS011;11588;51.178;4.852;2023-04-03T03:41:50;15.85;;;12.35;;
22843;SDS011;11588;51.178;4.852;2023-04-03T03:44:15;17.92;;;12.93;;
22843;SDS011;11588;51.178;4.852;2023-04-03T03:46:41;18.60;;;12.70;;
22843;SDS011;11588;51.178;4.852;2023-04-03T03:49:06;17.42;;;12.45;;
22843;SDS011;11588;51.178;4.852;2023-04-03T03:51:33;20.38;;;14.10;;
22843;SDS011;11588;51.178;4.852;2023-04-03T03:53:58;17.55;;;13.85;;
22843;SDS011;11588;51.178;4.852;2023-04-03T03:56:23;20.63;;;13.23;;
22843;SDS011;11588;51.178;4.852;2023-04-03T03:58:49;19.88;;;13.52;;
22843;SDS011;11588;51.178;4.852;2023-04-03T04:01:14;18.25;;;14.07;;
22843;SDS011;11588;51.178;4.852;2023-04-03T04:03:43;18.70;;;13.75;;
22843;SDS011;11588;51.178;4.852;2023-04-03T04:06:09;18.40;;;14.05;;
22843;SDS011;11588;51.178;4.852;2023-04-03T04:08:35;17.40;;;13.35;;
22843;SDS011;11588;51.178;4.852;2023-04-03T04:11:00;22.10;;;14.27;;
22843;SDS011;11588;51.178;4.852;2023-04-03T04:13:27;16.52;;;13.65;;
22843;SDS011;11588;51.178;4.852;2023-04-03T04:15:53;19.05;;;13.68;;
22843;SDS011;11588;51.178;4.852;2023-04-03T04:18:18;20.48;;;14.27;;
22843;SDS011;11588;51.178;4.852;2023-04-03T04:20:45;25.05;;;14.63;;
22843;SDS011;11588;51.178;4.852;2023-04-03T04:23:11;19.90;;;14.50;;
22843;SDS011;11588;51.178;4.852;2023-04-03T04:25:39;20.05;;;14.45;;
22843;SDS011;11588;51.178;4.852;2023-04-03T04:28:04;19.05;;;14.07;;
22843;SDS011;11588;51.178;4.852;2023-04-03T04:30:30;21.00;;;14.98;;
22843;SDS011;11588;51.178;4.852;2023-04-03T04:32:55;24.92;;;16.02;;
22843;SDS011;11588;51.178;4.852;2023-04-03T04:35:23;22.40;;;14.90;;
22843;SDS011;11588;51.178;4.852;2023-04-03T04:37:50;21.55;;;15.82;;
22843;SDS011;11588;51.178;4.852;2023-04-03T04:40:16;20.45;;;15.02;;
22843;SDS011;11588;51.178;4.852;2023-04-03T04:42:41;21.48;;;15.52;;
22843;SDS011;11588;51.178;4.852;2023-04-03T04:45:09;22.55;;;16.05;;
22843;SDS011;11588;51.178;4.852;2023-04-03T04:47:34;20.02;;;16.10;;
22843;SDS011;11588;51.178;4.852;2023-04-03T04:50:02;20.67;;;15.77;;
22843;SDS011;11588;51.178;4.852;2023-04-03T04:52:28;22.42;;;15.63;;
22843;SDS011;11588;51.178;4.852;2023-04-03T04:55:00;21.48;;;15.68;;
22843;SDS011;11588;51.178;4.852;2023-04-03T04:57:26;22.08;;;15.70;;
22843;SDS011;11588;51.178;4.852;2023-04-03T04:59:52;21.20;;;15.18;;
22843;SDS011;11588;51.178;4.852;2023-04-03T05:02:17;22.23;;;15.82;;
22843;SDS011;11588;51.178;4.852;2023-04-03T05:04:44;22.98;;;15.48;;
22843;SDS011;11588;51.178;4.852;2023-04-03T05:07:12;21.30;;;15.32;;
22843;SDS011;11588;51.178;4.852;2023-04-03T05:09:39;23.35;;;15.98;;
22843;SDS011;11588;51.178;4.852;2023-04-03T05:12:07;19.85;;;15.65;;
22843;SDS011;11588;51.178;4.852;2023-04-03T05:14:33;23.45;;;16.38;;
22843;SDS011;11588;51.178;4.852;2023-04-03T05:16:59;21.77;;;15.15;;
22843;SDS011;11588;51.178;4.852;2023-04-03T05:19:24;24.60;;;16.55;;
22843;SDS011;11588;51.178;4.852;2023-04-03T05:21:50;19.60;;;14.48;;
22843;SDS011;11588;51.178;4.852;2023-04-03T05:24:15;21.27;;;16.02;;
22843;SDS011;11588;51.178;4.852;2023-04-03T05:26:43;19.40;;;14.95;;
22843;SDS011;11588;51.178;4.852;2023-04-03T05:29:08;20.98;;;14.88;;
22843;SDS011;11588;51.178;4.852;2023-04-03T05:31:33;23.85;;;15.18;;
22843;SDS011;11588;51.178;4.852;2023-04-03T05:33:59;20.25;;;15.82;;
22843;SDS011;11588;51.178;4.852;2023-04-03T05:36:27;19.02;;;14.95;;
22843;SDS011;11588;51.178;4.852;2023-04-03T05:38:52;21.77;;;15.25;;
22843;SDS011;11588;51.178;4.852;2023-04-03T05:41:18;21.83;;;15.23;;
22843;SDS011;11588;51.178;4.852;2023-04-03T05:43:43;19.00;;;14.98;;
22843;SDS011;11588;51.178;4.852;2023-04-03T05:46:11;22.30;;;14.93;;
22843;SDS011;11588;51.178;4.852;2023-04-03T05:48:37;18.90;;;14.32;;
22843;SDS011;11588;51.178;4.852;2023-04-03T05:51:02;18.75;;;13.98;;
22843;SDS011;11588;51.178;4.852;2023-04-03T05:53:30;17.08;;;14.18;;
22843;SDS011;11588;51.178;4.852;2023-04-03T05:55:59;20.05;;;14.10;;
22843;SDS011;11588;51.178;4.852;2023-04-03T05:58:30;20.25;;;14.52;;
22843;SDS011;11588;51.178;4.852;2023-04-03T06:00:57;14.80;;;12.30;;
22843;SDS011;11588;51.178;4.852;2023-04-03T06:03:23;15.77;;;13.40;;
22843;SDS011;11588;51.178;4.852;2023-04-03T06:05:48;18.83;;;13.00;;
22843;SDS011;11588;51.178;4.852;2023-04-03T06:08:13;15.45;;;13.15;;
22843;SDS011;11588;51.178;4.852;2023-04-03T06:10:39;19.05;;;13.07;;
22843;SDS011;11588;51.178;4.852;2023-04-03T06:13:05;18.13;;;13.02;;
22843;SDS011;11588;51.178;4.852;2023-04-03T06:15:32;16.30;;;13.13;;
22843;SDS011;11588;51.178;4.852;2023-04-03T06:17:57;18.10;;;13.43;;
22843;SDS011;11588;51.178;4.852;2023-04-03T06:20:24;18.90;;;14.00;;
22843;SDS011;11588;51.178;4.852;2023-04-03T06:22:50;19.00;;;13.38;;
22843;SDS011;11588;51.178;4.852;2023-04-03T06:25:16;17.80;;;12.32;;
22843;SDS011;11588;51.178;4.852;2023-04-03T06:27:43;16.45;;;12.73;;
22843;SDS011;11588;51.178;4.852;2023-04-03T06:30:11;20.90;;;12.52;;
22843;SDS011;11588;51.178;4.852;2023-04-03T06:32:37;19.52;;;11.80;;
22843;SDS011;11588;51.178;4.852;2023-04-03T06:35:03;16.05;;;11.55;;
22843;SDS011;11588;51.178;4.852;2023-04-03T06:37:28;14.38;;;11.13;;
22843;SDS011;11588;51.178;4.852;2023-04-03T06:39:55;14.32;;;10.60;;
22843;SDS011;11588;51.178;4.852;2023-04-03T06:42:21;17.95;;;10.50;;
22843;SDS011;11588;51.178;4.852;2023-04-03T06:44:46;16.95;;;10.02;;
22843;SDS011;11588;51.178;4.852;2023-04-03T06:47:12;18.85;;;10.50;;
22843;SDS011;11588;51.178;4.852;2023-04-03T06:49:38;14.85;;;10.27;;
22843;SDS011;11588;51.178;4.852;2023-04-03T06:52:04;12.38;;;9.50;;
22843;SDS011;11588;51.178;4.852;2023-04-03T06:54:32;11.85;;;8.52;;
22843;SDS011;11588;51.178;4.852;2023-04-03T06:56:57;14.30;;;9.68;;
22843;SDS011;11588;51.178;4.852;2023-04-03T06:59:23;14.85;;;9.23;;
22843;SDS011;11588;51.178;4.852;2023-04-03T07:01:48;15.48;;;9.45;;
22843;SDS011;11588;51.178;4.852;2023-04-03T07:04:14;16.25;;;9.65;;
22843;SDS011;11588;51.178;4.852;2023-04-03T07:06:40;16.88;;;9.00;;
22843;SDS011;11588;51.178;4.852;2023-04-03T07:09:06;16.60;;;8.25;;
22843;SDS011;11588;51.178;4.852;2023-04-03T07:11:34;12.15;;;8.13;;
22843;SDS011;11588;51.178;4.852;2023-04-03T07:14:00;13.93;;;7.68;;
22843;SDS011;11588;51.178;4.852;2023-04-03T07:16:28;11.55;;;7.72;;
22843;SDS011;11588;51.178;4.852;2023-04-03T07:18:57;13.35;;;7.82;;
22843;SDS011;11588;51.178;4.852;2023-04-03T07:21:23;11.02;;;7.28;;
22843;SDS011;11588;51.178;4.852;2023-04-03T07:23:49;12.48;;;7.65;;
22843;SDS011;11588;51.178;4.852;2023-04-03T07:26:14;11.05;;;6.95;;
22843;SDS011;11588;51.178;4.852;2023-04-03T07:28:40;11.57;;;6.88;;
22843;SDS011;11588;51.178;4.852;2023-04-03T07:31:10;12.68;;;6.80;;
22843;SDS011;11588;51.178;4.852;2023-04-03T07:33:37;10.13;;;6.60;;
22843;SDS011;11588;51.178;4.852;2023-04-03T07:36:06;11.20;;;6.43;;
22843;SDS011;11588;51.178;4.852;2023-04-03T07:38:32;13.02;;;6.90;;
22843;SDS011;11588;51.178;4.852;2023-04-03T07:40:59;12.40;;;6.75;;
22843;SDS011;11588;51.178;4.852;2023-04-03T07:43:24;9.98;;;6.05;;
22843;SDS011;11588;51.178;4.852;2023-04-03T07:45:50;8.98;;;5.43;;
22843;SDS011;11588;51.178;4.852;2023-04-03T07:48:16;10.27;;;5.00;;
22843;SDS011;11588;51.178;4.852;2023-04-03T07:50:42;8.13;;;5.68;;
22843;SDS011;11588;51.178;4.852;2023-04-03T07:53:09;8.75;;;5.35;;
22843;SDS011;11588;51.178;4.852;2023-04-03T07:55:36;8.13;;;5.68;;
22843;SDS011;11588;51.178;4.852;2023-04-03T07:58:09;8.25;;;4.95;;
22843;SDS011;11588;51.178;4.852;2023-04-03T08:00:37;10.30;;;4.68;;
22843;SDS011;11588;51.178;4.852;2023-04-03T08:03:04;7.03;;;3.97;;
22843;SDS011;11588;51.178;4.852;2023-04-03T08:05:30;7.57;;;4.28;;
22843;SDS011;11588;51.178;4.852;2023-04-03T08:07:56;10.23;;;4.65;;
22843;SDS011;11588;51.178;4.852;2023-04-03T08:10:22;7.55;;;3.80;;
22843;SDS011;11588;51.178;4.852;2023-04-03T08:12:49;11.45;;;4.13;;
22843;SDS011;11588;51.178;4.852;2023-04-03T08:15:18;8.27;;;4.20;;
22843;SDS011;11588;51.178;4.852;2023-04-03T08:17:43;6.10;;;3.78;;
22843;SDS011;11588;51.178;4.852;2023-04-03T08:20:09;9.10;;;3.72;;
22843;SDS011;11588;51.178;4.852;2023-04-03T08:22:36;9.10;;;3.45;;
22843;SDS011;11588;51.178;4.852;2023-04-03T08:25:01;7.53;;;3.53;;
22843;SDS011;11588;51.178;4.852;2023-04-03T08:27:26;6.32;;;3.33;;
22843;SDS011;11588;51.178;4.852;2023-04-03T08:29:52;7.20;;;3.75;;
22843;SDS011;11588;51.178;4.852;2023-04-03T08:32:17;10.40;;;3.97;;
22843;SDS011;11588;51.178;4.852;2023-04-03T08:34:43;10.07;;;3.88;;
22843;SDS011;11588;51.178;4.852;2023-04-03T08:37:08;6.82;;;3.17;;
22843;SDS011;11588;51.178;4.852;2023-04-03T08:39:33;5.47;;;2.47;;
22843;SDS011;11588;51.178;4.852;2023-04-03T08:42:00;7.05;;;3.10;;
22843;SDS011;11588;51.178;4.852;2023-04-03T08:44:36;6.03;;;3.08;;
22843;SDS011;11588;51.178;4.852;2023-04-03T08:49:42;8.50;;;2.90;;
22843;SDS011;11588;51.178;4.852;2023-04-03T08:52:12;6.60;;;2.13;;
22843;SDS011;11588;51.178;4.852;2023-04-03T08:54:48;5.47;;;2.30;;
22843;SDS011;11588;51.178;4.852;2023-04-03T08:57:15;6.85;;;2.22;;
22843;SDS011;11588;51.178;4.852;2023-04-03T08:59:41;7.07;;;2.90;;
22843;SDS011;11588;51.178;4.852;2023-04-03T09:04:39;8.90;;;2.33;;
22843;SDS011;11588;51.178;4.852;2023-04-03T09:07:09;5.93;;;2.20;;
22843;SDS011;11588;51.178;4.852;2023-04-03T09:09:39;6.40;;;2.33;;
22843;SDS011;11588;51.178;4.852;2023-04-03T09:14:43;4.03;;;1.92;;
22843;SDS011;11588;51.178;4.852;2023-04-03T09:17:15;3.72;;;1.80;;
22843;SDS011;11588;51.178;4.852;2023-04-03T09:24:47;6.50;;;2.13;;
22843;SDS011;11588;51.178;4.852;2023-04-03T09:27:15;5.70;;;1.90;;
22843;SDS011;11588;51.178;4.852;2023-04-03T09:29:42;5.93;;;2.03;;
22843;SDS011;11588;51.178;4.852;2023-04-03T09:34:41;4.28;;;1.95;;
22843;SDS011;11588;51.178;4.852;2023-04-03T09:37:07;5.30;;;2.13;;
22843;SDS011;11588;51.178;4.852;2023-04-03T09:39:48;6.53;;;1.80;;
22843;SDS011;11588;51.178;4.852;2023-04-03T09:42:19;6.28;;;2.10;;
22843;SDS011;11588;51.178;4.852;2023-04-03T09:44:48;5.85;;;2.13;;
22843;SDS011;11588;51.178;4.852;2023-04-03T09:49:54;5.72;;;2.55;;
22843;SDS011;11588;51.178;4.852;2023-04-03T09:52:34;6.40;;;2.33;;
22843;SDS011;11588;51.178;4.852;2023-04-03T09:55:06;5.47;;;1.83;;
22843;SDS011;11588;51.178;4.852;2023-04-03T09:57:34;5.72;;;2.53;;
22843;SDS011;11588;51.178;4.852;2023-04-03T10:00:01;7.63;;;2.10;;
22843;SDS011;11588;51.178;4.852;2023-04-03T10:02:30;5.95;;;2.15;;
22843;SDS011;11588;51.178;4.852;2023-04-03T10:04:57;7.93;;;1.90;;
22843;SDS011;11588;51.178;4.852;2023-04-03T10:07:27;5.07;;;2.08;;
22843;SDS011;11588;51.178;4.852;2023-04-03T10:09:54;5.82;;;2.08;;
22843;SDS011;11588;51.178;4.852;2023-04-03T10:12:19;4.68;;;1.83;;
22843;SDS011;11588;51.178;4.852;2023-04-03T10:25:32;4.22;;;1.60;;
22843;SDS011;11588;51.178;4.852;2023-04-03T10:28:01;5.30;;;1.60;;
22843;SDS011;11588;51.178;4.852;2023-04-03T10:30:31;3.75;;;1.52;;
22843;SDS011;11588;51.178;4.852;2023-04-03T10:41:00;4.35;;;1.58;;
22843;SDS011;11588;51.178;4.852;2023-04-03T10:43:33;3.83;;;1.65;;
22843;SDS011;11588;51.178;4.852;2023-04-03T10:46:04;4.65;;;1.70;;
22843;SDS011;11588;51.178;4.852;2023-04-03T10:48:35;3.38;;;1.50;;
22843;SDS011;11588;51.178;4.852;2023-04-03T10:51:09;4.97;;;1.70;;
22843;SDS011;11588;51.178;4.852;2023-04-03T10:53:41;4.60;;;1.50;;
22843;SDS011;11588;51.178;4.852;2023-04-03T10:59:12;3.45;;;1.45;;
22843;SDS011;11588;51.178;4.852;2023-04-03T11:01:39;4.05;;;1.45;;
22843;SDS011;11588;51.178;4.852;2023-04-03T11:04:06;3.08;;;1.30;;
22843;SDS011;11588;51.178;4.852;2023-04-03T11:06:36;3.58;;;1.27;;
22843;SDS011;11588;51.178;4.852;2023-04-03T11:09:05;2.92;;;1.05;;
22843;SDS011;11588;51.178;4.852;2023-04-03T11:11:34;6.53;;;1.20;;
22843;SDS011;11588;51.178;4.852;2023-04-03T11:19:38;1.95;;;1.20;;
22843;SDS011;11588;51.178;4.852;2023-04-03T11:24:39;1.80;;;1.00;;
22843;SDS011;11588;51.178;4.852;2023-04-03T11:27:11;3.13;;;0.90;;
22843;SDS011;11588;51.178;4.852;2023-04-03T11:29:41;2.83;;;1.48;;
22843;SDS011;11588;51.178;4.852;2023-04-03T11:32:13;3.72;;;1.10;;
22843;SDS011;11588;51.178;4.852;2023-04-03T11:34:44;3.00;;;1.00;;
22843;SDS011;11588;51.178;4.852;2023-04-03T11:39:47;3.08;;;1.08;;
22843;SDS011;11588;51.178;4.852;2023-04-03T11:42:16;3.42;;;1.17;;
22843;SDS011;11588;51.178;4.852;2023-04-03T11:44:42;2.42;;;0.80;;
22843;SDS011;11588;51.178;4.852;2023-04-03T11:47:09;4.53;;;1.10;;
22843;SDS011;11588;51.178;4.852;2023-04-03T11:52:10;2.83;;;0.98;;
22843;SDS011;11588;51.178;4.852;2023-04-03T11:57:43;1.48;;;0.80;;
22843;SDS011;11588;51.178;4.852;2023-04-03T12:02:44;2.08;;;1.02;;
22843;SDS011;11588;51.178;4.852;2023-04-03T12:05:25;2.58;;;1.20;;
22843;SDS011;11588;51.178;4.852;2023-04-03T12:10:26;1.33;;;0.73;;
22843;SDS011;11588;51.178;4.852;2023-04-03T12:12:55;3.33;;;1.08;;
22843;SDS011;11588;51.178;4.852;2023-04-03T12:15:26;3.00;;;1.23;;
22843;SDS011;11588;51.178;4.852;2023-04-03T12:17:52;2.05;;;0.80;;
22843;SDS011;11588;51.178;4.852;2023-04-03T12:27:54;1.90;;;0.73;;
22843;SDS011;11588;51.178;4.852;2023-04-03T12:30:22;2.67;;;0.90;;
22843;SDS011;11588;51.178;4.852;2023-04-03T12:32:51;2.00;;;0.95;;
22843;SDS011;11588;51.178;4.852;2023-04-03T12:35:24;3.15;;;1.10;;
22843;SDS011;11588;51.178;4.852;2023-04-03T12:48:11;3.83;;;1.00;;
22843;SDS011;11588;51.178;4.852;2023-04-03T12:50:41;3.60;;;0.98;;
22843;SDS011;11588;51.178;4.852;2023-04-03T12:53:12;2.08;;;1.08;;
22843;SDS011;11588;51.178;4.852;2023-04-03T12:55:38;3.38;;;1.40;;
22843;SDS011;11588;51.178;4.852;2023-04-03T13:00:36;3.22;;;1.08;;
22843;SDS011;11588;51.178;4.852;2023-04-03T13:03:06;2.78;;;1.02;;
22843;SDS011;11588;51.178;4.852;2023-04-03T13:05:32;1.85;;;1.17;;
22843;SDS011;11588;51.178;4.852;2023-04-03T13:08:01;4.25;;;1.15;;
22843;SDS011;11588;51.178;4.852;2023-04-03T13:10:28;1.30;;;0.93;;
22843;SDS011;11588;51.178;4.852;2023-04-03T13:12:54;1.77;;;0.90;;
22843;SDS011;11588;51.178;4.852;2023-04-03T13:15:22;2.50;;;1.15;;
22843;SDS011;11588;51.178;4.852;2023-04-03T13:17:48;3.10;;;1.27;;
22843;SDS011;11588;51.178;4.852;2023-04-03T13:20:18;3.38;;;1.05;;
22843;SDS011;11588;51.178;4.852;2023-04-03T13:22:49;3.75;;;1.20;;
22843;SDS011;11588;51.178;4.852;2023-04-03T13:25:18;3.80;;;1.30;;
22843;SDS011;11588;51.178;4.852;2023-04-03T13:27:44;2.95;;;1.10;;
22843;SDS011;11588;51.178;4.852;2023-04-03T13:32:42;4.63;;;1.13;;
22843;SDS011;11588;51.178;4.852;2023-04-03T13:40:33;1.98;;;0.85;;
22843;SDS011;11588;51.178;4.852;2023-04-03T13:43:00;1.63;;;1.08;;
22843;SDS011;11588;51.178;4.852;2023-04-03T13:45:27;1.45;;;0.82;;
22843;SDS011;11588;51.178;4.852;2023-04-03T13:51:00;3.05;;;0.90;;
22843;SDS011;11588;51.178;4.852;2023-04-03T13:53:26;6.30;;;1.30;;
22843;SDS011;11588;51.178;4.852;2023-04-03T13:55:57;2.65;;;1.20;;
22843;SDS011;11588;51.178;4.852;2023-04-03T13:58:24;2.85;;;0.90;;
22843;SDS011;11588;51.178;4.852;2023-04-03T14:00:52;4.50;;;1.25;;
22843;SDS011;11588;51.178;4.852;2023-04-03T14:05:52;2.13;;;1.02;;
22843;SDS011;11588;51.178;4.852;2023-04-03T14:08:18;4.55;;;1.35;;
22843;SDS011;11588;51.178;4.852;2023-04-03T14:10:44;1.25;;;0.80;;
22843;SDS011;11588;51.178;4.852;2023-04-03T14:13:12;2.88;;;0.95;;
22843;SDS011;11588;51.178;4.852;2023-04-03T14:15:38;2.42;;;1.10;;
22843;SDS011;11588;51.178;4.852;2023-04-03T14:18:04;3.13;;;1.08;;
22843;SDS011;11588;51.178;4.852;2023-04-03T14:20:29;3.88;;;1.17;;
22843;SDS011;11588;51.178;4.852;2023-04-03T14:22:55;1.65;;;0.90;;
22843;SDS011;11588;51.178;4.852;2023-04-03T14:25:20;2.85;;;1.00;;
22843;SDS011;11588;51.178;4.852;2023-04-03T14:27:48;2.78;;;0.90;;
22843;SDS011;11588;51.178;4.852;2023-04-03T14:30:20;3.25;;;0.95;;
22843;SDS011;11588;51.178;4.852;2023-04-03T14:32:48;3.35;;;1.08;;
22843;SDS011;11588;51.178;4.852;2023-04-03T14:35:15;1.60;;;0.90;;
22843;SDS011;11588;51.178;4.852;2023-04-03T14:37:40;2.47;;;1.00;;
22843;SDS011;11588;51.178;4.852;2023-04-03T14:40:07;3.70;;;1.10;;
22843;SDS011;11588;51.178;4.852;2023-04-03T14:48:40;1.88;;;1.05;;
22843;SDS011;11588;51.178;4.852;2023-04-03T14:57:12;2.80;;;1.10;;
22843;SDS011;11588;51.178;4.852;2023-04-03T14:59:38;2.40;;;1.02;;
22843;SDS011;11588;51.178;4.852;2023-04-03T15:02:15;2.22;;;1.02;;
22843;SDS011;11588;51.178;4.852;2023-04-03T15:04:47;1.90;;;1.10;;
22843;SDS011;11588;51.178;4.852;2023-04-03T15:07:14;3.97;;;0.93;;
22843;SDS011;11588;51.178;4.852;2023-04-03T15:09:40;2.42;;;0.90;;
22843;SDS011;11588;51.178;4.852;2023-04-03T15:12:07;2.45;;;0.93;;
22843;SDS011;11588;51.178;4.852;2023-04-03T15:14:33;3.70;;;1.00;;
22843;SDS011;11588;51.178;4.852;2023-04-03T15:16:58;2.03;;;1.00;;
22843;SDS011;11588;51.178;4.852;2023-04-03T15:19:24;2.22;;;0.80;;
22843;SDS011;11588;51.178;4.852;2023-04-03T15:21:49;3.63;;;1.10;;
22843;SDS011;11588;51.178;4.852;2023-04-03T15:24:15;3.83;;;1.05;;
22843;SDS011;11588;51.178;4.852;2023-04-03T15:26:42;3.50;;;1.20;;
22843;SDS011;11588;51.178;4.852;2023-04-03T15:29:07;2.88;;;1.02;;
22843;SDS011;11588;51.178;4.852;2023-04-03T15:31:33;2.00;;;1.17;;
22843;SDS011;11588;51.178;4.852;2023-04-03T15:34:01;1.95;;;0.75;;
22843;SDS011;11588;51.178;4.852;2023-04-03T15:36:27;1.38;;;0.90;;
22843;SDS011;11588;51.178;4.852;2023-04-03T15:38:53;3.70;;;1.00;;
22843;SDS011;11588;51.178;4.852;2023-04-03T15:41:18;1.95;;;1.23;;
22843;SDS011;11588;51.178;4.852;2023-04-03T15:43:43;3.67;;;1.20;;
22843;SDS011;11588;51.178;4.852;2023-04-03T15:46:10;3.47;;;1.17;;
22843;SDS011;11588;51.178;4.852;2023-04-03T15:48:36;3.83;;;1.30;;
22843;SDS011;11588;51.178;4.852;2023-04-03T15:51:01;4.35;;;1.10;;
22843;SDS011;11588;51.178;4.852;2023-04-03T15:53:27;2.85;;;1.00;;
22843;SDS011;11588;51.178;4.852;2023-04-03T15:55:52;3.15;;;1.40;;
22843;SDS011;11588;51.178;4.852;2023-04-03T15:58:18;5.15;;;1.33;;
22843;SDS011;11588;51.178;4.852;2023-04-03T16:00:46;2.10;;;1.20;;
22843;SDS011;11588;51.178;4.852;2023-04-03T16:03:15;3.05;;;1.30;;
22843;SDS011;11588;51.178;4.852;2023-04-03T16:05:41;2.15;;;1.20;;
22843;SDS011;11588;51.178;4.852;2023-04-03T16:08:06;2.72;;;0.90;;
22843;SDS011;11588;51.178;4.852;2023-04-03T16:10:32;4.38;;;1.30;;
22843;SDS011;11588;51.178;4.852;2023-04-03T16:12:58;3.53;;;1.40;;
22843;SDS011;11588;51.178;4.852;2023-04-03T16:15:23;2.38;;;1.30;;
22843;SDS011;11588;51.178;4.852;2023-04-03T16:17:50;3.97;;;1.50;;
22843;SDS011;11588;51.178;4.852;2023-04-03T16:20:15;4.32;;;1.52;;
22843;SDS011;11588;51.178;4.852;2023-04-03T16:22:41;1.73;;;1.10;;
22843;SDS011;11588;51.178;4.852;2023-04-03T16:25:07;3.28;;;1.40;;
22843;SDS011;11588;51.178;4.852;2023-04-03T16:27:34;3.03;;;1.17;;